sensor_id;sensor_type;location;lat;lon;timestamp;P1;durP1;ratioP1;P2;durP2;ratioP2
36745;SDS011;22715;52.182;21.206;2022-08-19T00:04:37;13.55;;;9.90;;
36745;SDS011;22715;52.182;21.206;2022-08-19T00:07:15;12.38;;;10.40;;
36745;SDS011;22715;52.182;21.206;2022-08-19T00:13:10;15.15;;;9.65;;
36745;SDS011;22715;52.182;21.206;2022-08-19T00:21:46;12.27;;;10.10;;
36745;SDS011;22715;52.182;21.206;2022-08-19T00:24:12;14.60;;;10.15;;
36745;SDS011;22715;52.182;21.206;2022-08-19T00:26:43;9.90;;;8.73;;
36745;SDS011;22715;52.182;21.206;2022-08-19T00:29:22;12.82;;;10.30;;
36745;SDS011;22715;52.182;21.206;2022-08-19T00:32:06;11.30;;;8.80;;
36745;SDS011;22715;52.182;21.206;2022-08-19T00:34:31;11.05;;;9.15;;
36745;SDS011;22715;52.182;21.206;2022-08-19T00:37:07;9.98;;;8.98;;
36745;SDS011;22715;52.182;21.206;2022-08-19T00:42:40;11.43;;;8.80;;
36745;SDS011;22715;52.182;21.206;2022-08-19T00:47:34;17.08;;;9.38;;
36745;SDS011;22715;52.182;21.206;2022-08-19T00:56:01;12.85;;;10.65;;
36745;SDS011;22715;52.182;21.206;2022-08-19T01:01:30;14.57;;;10.65;;
36745;SDS011;22715;52.182;21.206;2022-08-19T01:07:18;12.13;;;9.80;;
36745;SDS011;22715;52.182;21.206;2022-08-19T01:09:48;11.60;;;9.80;;
36745;SDS011;22715;52.182;21.206;2022-08-19T01:18:45;11.48;;;9.52;;
36745;SDS011;22715;52.182;21.206;2022-08-19T09:22:42;74.28;;;38.92;;
36745;SDS011;22715;52.182;21.206;2022-08-19T09:30:25;54.15;;;33.42;;
36745;SDS011;22715;52.182;21.206;2022-08-19T10:44:41;5.70;;;4.82;;
36745;SDS011;22715;52.182;21.206;2022-08-19T10:47:09;6.25;;;4.53;;
36745;SDS011;22715;52.182;21.206;2022-08-19T10:49:41;6.35;;;4.90;;
36745;SDS011;22715;52.182;21.206;2022-08-19T12:01:31;9.30;;;5.25;;
36745;SDS011;22715;52.182;21.206;2022-08-19T12:03:57;7.50;;;4.85;;
36745;SDS011;22715;52.182;21.206;2022-08-19T14:03:36;7.90;;;4.30;;
36745;SDS011;22715;52.182;21.206;2022-08-19T15:23:43;8.02;;;4.00;;
36745;SDS011;22715;52.182;21.206;2022-08-19T15:26:13;10.80;;;4.90;;
36745;SDS011;22715;52.182;21.206;2022-08-19T15:29:02;12.48;;;3.50;;
36745;SDS011;22715;52.182;21.206;2022-08-19T15:34:26;8.30;;;4.10;;
36745;SDS011;22715;52.182;21.206;2022-08-19T15:36:53;6.85;;;3.67;;
36745;SDS011;22715;52.182;21.206;2022-08-19T15:39:32;7.70;;;4.10;;
36745;SDS011;22715;52.182;21.206;2022-08-19T18:41:58;8.48;;;3.90;;
36745;SDS011;22715;52.182;21.206;2022-08-19T18:44:45;12.63;;;4.97;;
36745;SDS011;22715;52.182;21.206;2022-08-19T18:47:31;11.18;;;3.83;;
36745;SDS011;22715;52.182;21.206;2022-08-19T18:50:24;7.20;;;4.30;;
36745;SDS011;22715;52.182;21.206;2022-08-19T18:52:50;4.57;;;4.15;;
36745;SDS011;22715;52.182;21.206;2022-08-19T21:33:31;7.18;;;4.00;;
36745;SDS011;22715;52.182;21.206;2022-08-19T21:38:54;8.63;;;4.05;;
36745;SDS011;22715;52.182;21.206;2022-08-19T21:41:27;6.27;;;5.13;;
36745;SDS011;22715;52.182;21.206;2022-08-19T21:43:54;6.90;;;3.50;;
36745;SDS011;22715;52.182;21.206;2022-08-19T21:46:26;5.82;;;3.67;;
36745;SDS011;22715;52.182;21.206;2022-08-19T21:48:52;8.23;;;4.05;;
36745;SDS011;22715;52.182;21.206;2022-08-19T21:53:46;8.18;;;3.92;;
36745;SDS011;22715;52.182;21.206;2022-08-19T21:56:14;5.97;;;3.53;;
36745;SDS011;22715;52.182;21.206;2022-08-19T22:01:29;9.68;;;3.65;;
36745;SDS011;22715;52.182;21.206;2022-08-19T22:16:23;6.00;;;3.90;;
36745;SDS011;22715;52.182;21.206;2022-08-19T22:18:49;6.97;;;4.07;;
36745;SDS011;22715;52.182;21.206;2022-08-19T22:21:15;15.27;;;4.35;;
36745;SDS011;22715;52.182;21.206;2022-08-19T22:23:42;7.40;;;4.40;;
36745;SDS011;22715;52.182;21.206;2022-08-19T22:26:08;8.25;;;4.55;;
36745;SDS011;22715;52.182;21.206;2022-08-19T22:28:33;7.07;;;4.90;;
36745;SDS011;22715;52.182;21.206;2022-08-19T22:30:59;8.65;;;4.07;;
36745;SDS011;22715;52.182;21.206;2022-08-19T22:33:28;8.65;;;4.40;;
36745;SDS011;22715;52.182;21.206;2022-08-19T22:35:54;5.60;;;3.28;;
36745;SDS011;22715;52.182;21.206;2022-08-19T22:38:20;4.75;;;3.90;;
36745;SDS011;22715;52.182;21.206;2022-08-19T22:40:57;6.03;;;3.35;;
36745;SDS011;22715;52.182;21.206;2022-08-19T22:43:26;4.43;;;3.63;;
36745;SDS011;22715;52.182;21.206;2022-08-19T22:45:54;6.90;;;4.03;;
36745;SDS011;22715;52.182;21.206;2022-08-19T22:48:21;6.75;;;4.32;;
36745;SDS011;22715;52.182;21.206;2022-08-19T22:50:47;5.00;;;3.92;;
36745;SDS011;22715;52.182;21.206;2022-08-19T22:53:32;7.22;;;5.13;;
36745;SDS011;22715;52.182;21.206;2022-08-19T22:55:58;9.30;;;4.38;;
36745;SDS011;22715;52.182;21.206;2022-08-19T22:58:24;4.30;;;3.47;;
36745;SDS011;22715;52.182;21.206;2022-08-19T23:00:49;9.30;;;3.95;;
36745;SDS011;22715;52.182;21.206;2022-08-19T23:03:15;12.85;;;4.60;;
36745;SDS011;22715;52.182;21.206;2022-08-19T23:05:51;6.20;;;3.53;;
36745;SDS011;22715;52.182;21.206;2022-08-19T23:08:17;7.80;;;4.10;;
36745;SDS011;22715;52.182;21.206;2022-08-19T23:10:42;4.93;;;3.53;;
36745;SDS011;22715;52.182;21.206;2022-08-19T23:13:08;4.93;;;3.53;;
36745;SDS011;22715;52.182;21.206;2022-08-19T23:15:34;3.40;;;3.10;;
36745;SDS011;22715;52.182;21.206;2022-08-19T23:18:09;8.85;;;4.97;;
36745;SDS011;22715;52.182;21.206;2022-08-19T23:20:35;8.60;;;3.55;;
36745;SDS011;22715;52.182;21.206;2022-08-19T23:23:03;5.40;;;3.60;;
36745;SDS011;22715;52.182;21.206;2022-08-19T23:25:30;8.27;;;4.70;;
36745;SDS011;22715;52.182;21.206;2022-08-19T23:27:56;5.97;;;3.70;;
36745;SDS011;22715;52.182;21.206;2022-08-19T23:30:45;9.00;;;3.97;;
36745;SDS011;22715;52.182;21.206;2022-08-19T23:33:15;6.20;;;4.07;;
36745;SDS011;22715;52.182;21.206;2022-08-19T23:35:42;6.03;;;4.25;;
36745;SDS011;22715;52.182;21.206;2022-08-19T23:38:08;7.72;;;4.57;;
36745;SDS011;22715;52.182;21.206;2022-08-19T23:40:34;7.18;;;4.40;;
36745;SDS011;22715;52.182;21.206;2022-08-19T23:43:00;4.78;;;4.20;;
36745;SDS011;22715;52.182;21.206;2022-08-19T23:45:27;4.90;;;4.22;;
36745;SDS011;22715;52.182;21.206;2022-08-19T23:47:53;5.13;;;4.22;;
36745;SDS011;22715;52.182;21.206;2022-08-19T23:50:20;10.80;;;4.47;;
36745;SDS011;22715;52.182;21.206;2022-08-19T23:52:51;4.95;;;3.88;;
36745;SDS011;22715;52.182;21.206;2022-08-19T23:55:17;6.32;;;4.03;;
36745;SDS011;22715;52.182;21.206;2022-08-19T23:57:43;6.28;;;4.85;;
